Hovedside
METAR-TAF:

METAR-TAF

Lufthavner :

Moss lufthavn. Rygge

Rygge, Norge

breddegrad: 59-23N, lengdegrad: 010-47E, høyde over havet: 5 m

Gjeldene værobservasjon

Denne rapporten ble laget for 12 minutter siden, klokken 04:50 UTC
Vind 7 kt fra Øst-nordøst
Temperatur 13°C
Luftfuktighet 47%
Trykk 1014 hPa
Sikt 10 km eller mer

METAR: ENRY 250450Z AUTO 07007KT 9999NDV OVC053/// 13/02 Q1014

Tid: 07:02 (05:02 UTC)

Varsel

Varsel gyldig fra 25. klokken 00 UTC til 25. klokken 24 UTC
Vind 7 kt fra Øst-nordøst
Sikt 10 km eller mer
Få skyer i en høyde av 4000 ft
Brutte skyer i en høyde av 6000 ft
Midlertidig
fra 25. klokken 12 UTC til 25. klokken 21 UTC
Vind 15 kt fra Øst med vindkast opp mot 25 kt
Få skyer i en høyde av 4000 ft, Bygeskyer.
Brutte skyer i en høyde av 6000 ft

TAF: ENRY 2500/2524 06007KT 9999 FEW040 BKN060 TEMPO 2512/2521 10015G25KT FEW040CB BKN060

Værobservasjoner og værvarsel for over 4000 flyplasser (METAR- og TAF-rapporter).

Tilgjengelige stasjoner er representert av de røde og gule prikkene på kartet.

Hold musepekeren over prikken for å se navnet på stasjonen.

Klikk så for å se værobservasjoner og -varsler.

For å forandre kartet kan du klikke på den grønne knappen med svart kryss for å zoome inn, på den grønne knappen med strek for å zoome ut, eller på de grønne pilene for å se tilstøtende kart.


METAR-TAF: